sensor_id;sensor_type;location;lat;lon;timestamp;temperature;humidity
20416;DHT22;10367;52.202;5.996;2022-12-18T00:00:09;-3.50;99.90
20416;DHT22;10367;52.202;5.996;2022-12-18T00:02:38;-3.60;99.90
20416;DHT22;10367;52.202;5.996;2022-12-18T00:05:07;-3.70;99.90
20416;DHT22;10367;52.202;5.996;2022-12-18T00:07:36;-3.80;99.90
20416;DHT22;10367;52.202;5.996;2022-12-18T00:10:06;-3.90;99.90
20416;DHT22;10367;52.202;5.996;2022-12-18T00:12:35;-4.00;99.90
20416;DHT22;10367;52.202;5.996;2022-12-18T00:15:06;-4.10;99.90
20416;DHT22;10367;52.202;5.996;2022-12-18T00:17:35;-4.20;99.90
20416;DHT22;10367;52.202;5.996;2022-12-18T00:20:04;-4.30;99.90
20416;DHT22;10367;52.202;5.996;2022-12-18T00:22:33;-4.30;99.90
20416;DHT22;10367;52.202;5.996;2022-12-18T00:25:03;-4.30;99.90
20416;DHT22;10367;52.202;5.996;2022-12-18T00:27:31;-4.20;99.90
20416;DHT22;10367;52.202;5.996;2022-12-18T00:30:00;-4.10;99.90
20416;DHT22;10367;52.202;5.996;2022-12-18T00:32:30;-4.10;99.90
20416;DHT22;10367;52.202;5.996;2022-12-18T00:34:59;-4.00;99.90
20416;DHT22;10367;52.202;5.996;2022-12-18T00:37:27;-4.00;99.90
20416;DHT22;10367;52.202;5.996;2022-12-18T00:39:56;-4.00;99.90
20416;DHT22;10367;52.202;5.996;2022-12-18T00:42:24;-4.00;99.90
20416;DHT22;10367;52.202;5.996;2022-12-18T00:45:10;-4.00;99.90
20416;DHT22;10367;52.202;5.996;2022-12-18T00:47:41;-4.00;99.90
20416;DHT22;10367;52.202;5.996;2022-12-18T00:50:10;-4.00;99.90
20416;DHT22;10367;52.202;5.996;2022-12-18T00:52:39;-4.00;99.90
20416;DHT22;10367;52.202;5.996;2022-12-18T00:55:08;-4.00;99.90
20416;DHT22;10367;52.202;5.996;2022-12-18T00:57:37;-4.10;99.90
20416;DHT22;10367;52.202;5.996;2022-12-18T01:00:08;-4.10;99.90
20416;DHT22;10367;52.202;5.996;2022-12-18T01:02:37;-4.20;99.90
20416;DHT22;10367;52.202;5.996;2022-12-18T01:05:08;-4.20;99.90
20416;DHT22;10367;52.202;5.996;2022-12-18T01:07:37;-4.20;99.90
20416;DHT22;10367;52.202;5.996;2022-12-18T01:10:07;-4.30;99.90
20416;DHT22;10367;52.202;5.996;2022-12-18T01:12:37;-4.30;99.90
20416;DHT22;10367;52.202;5.996;2022-12-18T01:15:08;-4.30;99.90
20416;DHT22;10367;52.202;5.996;2022-12-18T01:17:37;-4.30;99.90
20416;DHT22;10367;52.202;5.996;2022-12-18T01:20:09;-4.30;99.90
20416;DHT22;10367;52.202;5.996;2022-12-18T01:22:38;-4.40;99.90
20416;DHT22;10367;52.202;5.996;2022-12-18T01:25:08;-4.50;99.90
20416;DHT22;10367;52.202;5.996;2022-12-18T01:27:36;-4.60;99.90
20416;DHT22;10367;52.202;5.996;2022-12-18T01:30:06;-4.70;99.90
20416;DHT22;10367;52.202;5.996;2022-12-18T01:32:35;-4.80;99.90
20416;DHT22;10367;52.202;5.996;2022-12-18T01:35:05;-4.90;99.90
20416;DHT22;10367;52.202;5.996;2022-12-18T01:37:35;-4.90;99.90
20416;DHT22;10367;52.202;5.996;2022-12-18T01:40:05;-4.90;99.90
20416;DHT22;10367;52.202;5.996;2022-12-18T01:42:33;-4.90;99.90
20416;DHT22;10367;52.202;5.996;2022-12-18T01:45:21;-5.00;99.90
20416;DHT22;10367;52.202;5.996;2022-12-18T01:47:52;-5.00;99.90
20416;DHT22;10367;52.202;5.996;2022-12-18T01:50:24;-5.10;99.90
20416;DHT22;10367;52.202;5.996;2022-12-18T01:52:57;-5.10;99.90
20416;DHT22;10367;52.202;5.996;2022-12-18T01:55:29;-5.20;99.90
20416;DHT22;10367;52.202;5.996;2022-12-18T01:57:59;-5.20;99.90
20416;DHT22;10367;52.202;5.996;2022-12-18T02:00:28;-5.30;99.90
20416;DHT22;10367;52.202;5.996;2022-12-18T02:02:57;-5.30;99.90
20416;DHT22;10367;52.202;5.996;2022-12-18T02:05:35;-5.30;99.90
20416;DHT22;10367;52.202;5.996;2022-12-18T02:08:10;-5.30;99.90
20416;DHT22;10367;52.202;5.996;2022-12-18T02:10:47;-5.30;99.90
20416;DHT22;10367;52.202;5.996;2022-12-18T02:13:22;-5.40;99.90
20416;DHT22;10367;52.202;5.996;2022-12-18T02:15:59;-5.30;99.90
20416;DHT22;10367;52.202;5.996;2022-12-18T02:18:33;-5.40;99.90
20416;DHT22;10367;52.202;5.996;2022-12-18T02:21:11;-5.40;99.90
20416;DHT22;10367;52.202;5.996;2022-12-18T02:23:48;-5.40;99.90
20416;DHT22;10367;52.202;5.996;2022-12-18T02:26:25;-5.40;99.90
20416;DHT22;10367;52.202;5.996;2022-12-18T02:28:59;-5.50;99.90
20416;DHT22;10367;52.202;5.996;2022-12-18T02:31:33;-5.50;99.90
20416;DHT22;10367;52.202;5.996;2022-12-18T02:34:06;-5.50;99.90
20416;DHT22;10367;52.202;5.996;2022-12-18T02:36:41;-5.50;99.90
20416;DHT22;10367;52.202;5.996;2022-12-18T02:39:11;-5.50;99.90
20416;DHT22;10367;52.202;5.996;2022-12-18T02:41:42;-5.50;99.90
20416;DHT22;10367;52.202;5.996;2022-12-18T02:44:12;-5.50;99.90
20416;DHT22;10367;52.202;5.996;2022-12-18T02:46:43;-5.50;99.90
20416;DHT22;10367;52.202;5.996;2022-12-18T02:49:20;-5.50;99.90
20416;DHT22;10367;52.202;5.996;2022-12-18T02:51:53;-5.60;99.90
20416;DHT22;10367;52.202;5.996;2022-12-18T02:54:41;-5.60;99.90
20416;DHT22;10367;52.202;5.996;2022-12-18T02:57:18;-5.60;99.90
20416;DHT22;10367;52.202;5.996;2022-12-18T02:59:56;-5.60;99.90
20416;DHT22;10367;52.202;5.996;2022-12-18T03:02:31;-5.60;99.90
20416;DHT22;10367;52.202;5.996;2022-12-18T03:05:07;-5.60;99.90
20416;DHT22;10367;52.202;5.996;2022-12-18T03:07:42;-5.60;99.90
20416;DHT22;10367;52.202;5.996;2022-12-18T03:10:14;-5.70;99.90
20416;DHT22;10367;52.202;5.996;2022-12-18T03:12:50;-5.70;99.90
20416;DHT22;10367;52.202;5.996;2022-12-18T03:15:22;-5.80;99.90
20416;DHT22;10367;52.202;5.996;2022-12-18T03:17:57;-5.90;99.90
20416;DHT22;10367;52.202;5.996;2022-12-18T03:20:30;-5.90;99.90
20416;DHT22;10367;52.202;5.996;2022-12-18T03:23:02;-5.90;99.90
20416;DHT22;10367;52.202;5.996;2022-12-18T03:25:33;-5.80;99.90
20416;DHT22;10367;52.202;5.996;2022-12-18T03:28:06;-5.90;99.90
20416;DHT22;10367;52.202;5.996;2022-12-18T03:30:38;-5.90;99.90
20416;DHT22;10367;52.202;5.996;2022-12-18T03:33:12;-5.90;99.90
20416;DHT22;10367;52.202;5.996;2022-12-18T03:35:42;-5.90;99.90
20416;DHT22;10367;52.202;5.996;2022-12-18T03:38:12;-6.00;99.90
20416;DHT22;10367;52.202;5.996;2022-12-18T03:40:50;-6.00;99.90
20416;DHT22;10367;52.202;5.996;2022-12-18T03:43:30;-6.00;99.90
20416;DHT22;10367;52.202;5.996;2022-12-18T03:46:08;-6.00;99.90
20416;DHT22;10367;52.202;5.996;2022-12-18T03:48:41;-6.10;99.90
20416;DHT22;10367;52.202;5.996;2022-12-18T03:51:17;-6.10;99.90
20416;DHT22;10367;52.202;5.996;2022-12-18T03:53:53;-6.00;99.90
20416;DHT22;10367;52.202;5.996;2022-12-18T03:56:25;-6.00;99.90
20416;DHT22;10367;52.202;5.996;2022-12-18T03:58:58;-6.00;99.90
20416;DHT22;10367;52.202;5.996;2022-12-18T04:01:31;-6.00;99.90
20416;DHT22;10367;52.202;5.996;2022-12-18T04:04:01;-6.00;99.90
20416;DHT22;10367;52.202;5.996;2022-12-18T04:06:35;-6.00;99.90
20416;DHT22;10367;52.202;5.996;2022-12-18T04:09:05;-6.00;99.90
20416;DHT22;10367;52.202;5.996;2022-12-18T04:11:34;-6.10;99.90
20416;DHT22;10367;52.202;5.996;2022-12-18T04:14:05;-6.10;99.90
20416;DHT22;10367;52.202;5.996;2022-12-18T04:16:36;-6.10;99.90
20416;DHT22;10367;52.202;5.996;2022-12-18T04:19:05;-6.20;99.90
20416;DHT22;10367;52.202;5.996;2022-12-18T04:21:33;-6.20;99.90
20416;DHT22;10367;52.202;5.996;2022-12-18T04:24:02;-6.20;99.90
20416;DHT22;10367;52.202;5.996;2022-12-18T04:26:31;-6.20;99.90
20416;DHT22;10367;52.202;5.996;2022-12-18T04:29:00;-6.20;99.90
20416;DHT22;10367;52.202;5.996;2022-12-18T04:31:30;-6.10;99.90
20416;DHT22;10367;52.202;5.996;2022-12-18T04:33:59;-6.10;99.90
20416;DHT22;10367;52.202;5.996;2022-12-18T04:36:27;-6.10;99.90
20416;DHT22;10367;52.202;5.996;2022-12-18T04:38:56;-6.20;99.90
20416;DHT22;10367;52.202;5.996;2022-12-18T04:41:25;-6.20;99.90
20416;DHT22;10367;52.202;5.996;2022-12-18T04:43:53;-6.20;99.90
20416;DHT22;10367;52.202;5.996;2022-12-18T04:46:22;-6.20;99.90
20416;DHT22;10367;52.202;5.996;2022-12-18T04:48:52;-6.20;99.90
20416;DHT22;10367;52.202;5.996;2022-12-18T04:51:21;-6.20;99.90
20416;DHT22;10367;52.202;5.996;2022-12-18T04:53:53;-6.30;99.90
20416;DHT22;10367;52.202;5.996;2022-12-18T04:56:22;-6.30;99.90
20416;DHT22;10367;52.202;5.996;2022-12-18T04:58:50;-6.30;99.90
20416;DHT22;10367;52.202;5.996;2022-12-18T05:01:19;-6.30;99.90
20416;DHT22;10367;52.202;5.996;2022-12-18T05:03:48;-6.20;99.90
20416;DHT22;10367;52.202;5.996;2022-12-18T05:06:18;-6.20;99.90
20416;DHT22;10367;52.202;5.996;2022-12-18T05:08:47;-6.30;99.90
20416;DHT22;10367;52.202;5.996;2022-12-18T05:11:16;-6.30;99.90
20416;DHT22;10367;52.202;5.996;2022-12-18T05:13:45;-6.30;99.90
20416;DHT22;10367;52.202;5.996;2022-12-18T05:16:14;-6.40;99.90
20416;DHT22;10367;52.202;5.996;2022-12-18T05:18:43;-6.40;99.90
20416;DHT22;10367;52.202;5.996;2022-12-18T05:21:11;-6.30;99.90
20416;DHT22;10367;52.202;5.996;2022-12-18T05:23:41;-6.30;99.90
20416;DHT22;10367;52.202;5.996;2022-12-18T05:26:15;-6.40;99.90
20416;DHT22;10367;52.202;5.996;2022-12-18T05:28:43;-6.40;99.90
20416;DHT22;10367;52.202;5.996;2022-12-18T05:31:13;-6.30;99.90
20416;DHT22;10367;52.202;5.996;2022-12-18T05:33:42;-6.40;99.90
20416;DHT22;10367;52.202;5.996;2022-12-18T05:36:11;-6.40;99.90
20416;DHT22;10367;52.202;5.996;2022-12-18T05:38:41;-6.40;99.90
20416;DHT22;10367;52.202;5.996;2022-12-18T05:41:10;-6.40;99.90
20416;DHT22;10367;52.202;5.996;2022-12-18T05:43:39;-6.40;99.90
20416;DHT22;10367;52.202;5.996;2022-12-18T05:46:13;-6.40;99.90
20416;DHT22;10367;52.202;5.996;2022-12-18T05:48:42;-6.40;99.90
20416;DHT22;10367;52.202;5.996;2022-12-18T05:51:15;-6.40;99.90
20416;DHT22;10367;52.202;5.996;2022-12-18T05:53:45;-6.40;99.90
20416;DHT22;10367;52.202;5.996;2022-12-18T05:56:16;-6.40;99.90
20416;DHT22;10367;52.202;5.996;2022-12-18T05:58:45;-6.50;99.90
20416;DHT22;10367;52.202;5.996;2022-12-18T06:01:15;-6.50;99.90
20416;DHT22;10367;52.202;5.996;2022-12-18T06:03:45;-6.50;99.90
20416;DHT22;10367;52.202;5.996;2022-12-18T06:06:15;-6.50;99.90
20416;DHT22;10367;52.202;5.996;2022-12-18T06:08:46;-6.50;99.90
20416;DHT22;10367;52.202;5.996;2022-12-18T06:11:17;-6.50;99.90
20416;DHT22;10367;52.202;5.996;2022-12-18T06:13:48;-6.60;99.90
20416;DHT22;10367;52.202;5.996;2022-12-18T06:16:24;-6.60;99.90
20416;DHT22;10367;52.202;5.996;2022-12-18T06:18:55;-6.70;99.90
20416;DHT22;10367;52.202;5.996;2022-12-18T06:21:24;-6.80;99.90
20416;DHT22;10367;52.202;5.996;2022-12-18T06:23:54;-6.80;99.90
20416;DHT22;10367;52.202;5.996;2022-12-18T06:26:24;-6.80;99.90
20416;DHT22;10367;52.202;5.996;2022-12-18T06:28:55;-6.80;99.90
20416;DHT22;10367;52.202;5.996;2022-12-18T06:31:25;-6.80;99.90
20416;DHT22;10367;52.202;5.996;2022-12-18T06:33:54;-6.80;99.90
20416;DHT22;10367;52.202;5.996;2022-12-18T06:36:22;-6.80;99.90
20416;DHT22;10367;52.202;5.996;2022-12-18T06:38:51;-6.80;99.90
20416;DHT22;10367;52.202;5.996;2022-12-18T06:41:21;-6.60;99.90
20416;DHT22;10367;52.202;5.996;2022-12-18T06:43:50;-6.60;99.90
20416;DHT22;10367;52.202;5.996;2022-12-18T06:46:24;-6.60;99.90
20416;DHT22;10367;52.202;5.996;2022-12-18T06:48:53;-6.70;99.90
20416;DHT22;10367;52.202;5.996;2022-12-18T06:51:23;-6.60;99.90
20416;DHT22;10367;52.202;5.996;2022-12-18T06:53:52;-6.60;99.90
20416;DHT22;10367;52.202;5.996;2022-12-18T06:56:22;-6.50;99.90
20416;DHT22;10367;52.202;5.996;2022-12-18T06:58:50;-6.50;99.90
20416;DHT22;10367;52.202;5.996;2022-12-18T07:01:19;-6.50;99.90
20416;DHT22;10367;52.202;5.996;2022-12-18T07:03:51;-6.50;99.90
20416;DHT22;10367;52.202;5.996;2022-12-18T07:06:22;-6.50;99.90
20416;DHT22;10367;52.202;5.996;2022-12-18T07:08:52;-6.50;99.90
20416;DHT22;10367;52.202;5.996;2022-12-18T07:11:23;-6.50;99.90
20416;DHT22;10367;52.202;5.996;2022-12-18T07:13:53;-6.50;99.90
20416;DHT22;10367;52.202;5.996;2022-12-18T07:16:22;-6.50;99.90
20416;DHT22;10367;52.202;5.996;2022-12-18T07:18:52;-6.50;99.90
20416;DHT22;10367;52.202;5.996;2022-12-18T07:21:22;-6.50;99.90
20416;DHT22;10367;52.202;5.996;2022-12-18T07:23:51;-6.60;99.90
20416;DHT22;10367;52.202;5.996;2022-12-18T07:26:21;-6.60;99.90
20416;DHT22;10367;52.202;5.996;2022-12-18T07:28:54;-6.50;99.90
20416;DHT22;10367;52.202;5.996;2022-12-18T07:31:25;-6.50;99.90
20416;DHT22;10367;52.202;5.996;2022-12-18T07:33:55;-6.50;99.90
20416;DHT22;10367;52.202;5.996;2022-12-18T07:36:24;-6.40;99.90
20416;DHT22;10367;52.202;5.996;2022-12-18T07:38:53;-6.40;99.90
20416;DHT22;10367;52.202;5.996;2022-12-18T07:41:22;-6.40;99.90
20416;DHT22;10367;52.202;5.996;2022-12-18T07:43:52;-6.40;99.90
20416;DHT22;10367;52.202;5.996;2022-12-18T07:46:20;-6.40;99.90
20416;DHT22;10367;52.202;5.996;2022-12-18T07:48:49;-6.50;99.90
20416;DHT22;10367;52.202;5.996;2022-12-18T07:51:18;-6.60;99.90
20416;DHT22;10367;52.202;5.996;2022-12-18T07:53:47;-6.60;99.90
20416;DHT22;10367;52.202;5.996;2022-12-18T07:56:19;-6.60;99.90
20416;DHT22;10367;52.202;5.996;2022-12-18T07:58:57;-6.60;99.90
20416;DHT22;10367;52.202;5.996;2022-12-18T08:01:26;-6.50;99.90
20416;DHT22;10367;52.202;5.996;2022-12-18T08:03:56;-6.40;99.90
20416;DHT22;10367;52.202;5.996;2022-12-18T08:06:25;-6.30;99.90
20416;DHT22;10367;52.202;5.996;2022-12-18T08:08:55;-6.30;99.90
20416;DHT22;10367;52.202;5.996;2022-12-18T08:11:25;-6.30;99.90
20416;DHT22;10367;52.202;5.996;2022-12-18T08:13:56;-6.20;99.90
20416;DHT22;10367;52.202;5.996;2022-12-18T08:16:26;-6.20;99.90
20416;DHT22;10367;52.202;5.996;2022-12-18T08:18:56;-6.20;99.90
20416;DHT22;10367;52.202;5.996;2022-12-18T08:21:26;-6.20;99.90
20416;DHT22;10367;52.202;5.996;2022-12-18T08:23:56;-6.10;99.90
20416;DHT22;10367;52.202;5.996;2022-12-18T08:26:27;-6.00;99.90
20416;DHT22;10367;52.202;5.996;2022-12-18T08:28:59;-5.90;99.90
20416;DHT22;10367;52.202;5.996;2022-12-18T08:31:29;-5.80;99.90
20416;DHT22;10367;52.202;5.996;2022-12-18T08:33:58;-5.80;99.90
20416;DHT22;10367;52.202;5.996;2022-12-18T08:36:27;-5.80;99.90
20416;DHT22;10367;52.202;5.996;2022-12-18T08:38:56;-5.70;99.90
20416;DHT22;10367;52.202;5.996;2022-12-18T08:41:26;-5.60;99.90
20416;DHT22;10367;52.202;5.996;2022-12-18T08:43:57;-5.50;99.90
20416;DHT22;10367;52.202;5.996;2022-12-18T08:46:43;-5.40;99.90
20416;DHT22;10367;52.202;5.996;2022-12-18T08:49:12;-5.40;99.90
20416;DHT22;10367;52.202;5.996;2022-12-18T08:51:41;-5.30;99.90
20416;DHT22;10367;52.202;5.996;2022-12-18T08:54:11;-5.30;99.90
20416;DHT22;10367;52.202;5.996;2022-12-18T08:56:41;-5.10;99.90
20416;DHT22;10367;52.202;5.996;2022-12-18T08:59:11;-5.10;99.90
20416;DHT22;10367;52.202;5.996;2022-12-18T09:01:46;-5.10;99.90
20416;DHT22;10367;52.202;5.996;2022-12-18T09:04:15;-5.00;99.90
20416;DHT22;10367;52.202;5.996;2022-12-18T09:06:44;-5.00;99.90
20416;DHT22;10367;52.202;5.996;2022-12-18T09:09:12;-4.90;99.90
20416;DHT22;10367;52.202;5.996;2022-12-18T09:11:41;-4.80;99.90
20416;DHT22;10367;52.202;5.996;2022-12-18T09:14:11;-4.70;99.90
20416;DHT22;10367;52.202;5.996;2022-12-18T09:16:40;-4.60;99.90
20416;DHT22;10367;52.202;5.996;2022-12-18T09:19:13;-4.50;99.90
20416;DHT22;10367;52.202;5.996;2022-12-18T09:21:42;-4.40;99.90
20416;DHT22;10367;52.202;5.996;2022-12-18T09:24:15;-4.30;99.90
20416;DHT22;10367;52.202;5.996;2022-12-18T09:26:44;-4.20;99.90
20416;DHT22;10367;52.202;5.996;2022-12-18T09:29:15;-4.20;99.90
20416;DHT22;10367;52.202;5.996;2022-12-18T09:31:45;-4.20;99.90
20416;DHT22;10367;52.202;5.996;2022-12-18T09:34:14;-4.10;99.90
20416;DHT22;10367;52.202;5.996;2022-12-18T09:36:43;-4.10;99.90
20416;DHT22;10367;52.202;5.996;2022-12-18T09:39:13;-4.00;99.90
20416;DHT22;10367;52.202;5.996;2022-12-18T09:41:50;-4.00;99.90
20416;DHT22;10367;52.202;5.996;2022-12-18T09:44:26;-3.90;99.90
20416;DHT22;10367;52.202;5.996;2022-12-18T09:47:07;-3.80;99.90
20416;DHT22;10367;52.202;5.996;2022-12-18T09:49:40;-3.70;99.90
20416;DHT22;10367;52.202;5.996;2022-12-18T09:52:15;-3.60;99.90
20416;DHT22;10367;52.202;5.996;2022-12-18T09:54:48;-3.60;99.90
20416;DHT22;10367;52.202;5.996;2022-12-18T09:57:20;-3.50;99.90
20416;DHT22;10367;52.202;5.996;2022-12-18T09:59:54;-3.40;99.90
20416;DHT22;10367;52.202;5.996;2022-12-18T10:02:25;-3.40;99.90
20416;DHT22;10367;52.202;5.996;2022-12-18T10:05:03;-3.30;99.90
20416;DHT22;10367;52.202;5.996;2022-12-18T10:07:48;-3.20;99.90
20416;DHT22;10367;52.202;5.996;2022-12-18T10:10:35;-3.20;99.90
20416;DHT22;10367;52.202;5.996;2022-12-18T10:13:15;-3.10;99.90
20416;DHT22;10367;52.202;5.996;2022-12-18T10:16:03;-3.00;99.90
20416;DHT22;10367;52.202;5.996;2022-12-18T10:18:47;-3.00;99.90
20416;DHT22;10367;52.202;5.996;2022-12-18T10:21:21;-2.90;99.90
20416;DHT22;10367;52.202;5.996;2022-12-18T10:24:00;-2.80;99.90
20416;DHT22;10367;52.202;5.996;2022-12-18T10:26:31;-2.80;99.90
20416;DHT22;10367;52.202;5.996;2022-12-18T10:29:01;-2.80;99.90
20416;DHT22;10367;52.202;5.996;2022-12-18T10:31:34;-2.70;99.90
20416;DHT22;10367;52.202;5.996;2022-12-18T10:34:03;-2.60;99.90
20416;DHT22;10367;52.202;5.996;2022-12-18T10:36:33;-2.50;99.90
20416;DHT22;10367;52.202;5.996;2022-12-18T10:39:15;-2.50;99.90
20416;DHT22;10367;52.202;5.996;2022-12-18T10:41:43;-2.40;99.90
20416;DHT22;10367;52.202;5.996;2022-12-18T10:44:18;-2.40;99.90
20416;DHT22;10367;52.202;5.996;2022-12-18T10:46:50;-2.30;99.90
20416;DHT22;10367;52.202;5.996;2022-12-18T10:49:22;-2.30;99.90
20416;DHT22;10367;52.202;5.996;2022-12-18T10:52:03;-2.20;99.90
20416;DHT22;10367;52.202;5.996;2022-12-18T10:54:34;-2.10;99.90
20416;DHT22;10367;52.202;5.996;2022-12-18T10:57:18;-2.10;99.90
20416;DHT22;10367;52.202;5.996;2022-12-18T10:59:58;-2.00;99.90
20416;DHT22;10367;52.202;5.996;2022-12-18T11:02:34;-1.90;99.90
20416;DHT22;10367;52.202;5.996;2022-12-18T11:05:24;-1.80;99.90
20416;DHT22;10367;52.202;5.996;2022-12-18T11:07:55;-1.70;99.90
20416;DHT22;10367;52.202;5.996;2022-12-18T11:10:28;-1.70;99.90
20416;DHT22;10367;52.202;5.996;2022-12-18T11:13:14;-1.60;99.90
20416;DHT22;10367;52.202;5.996;2022-12-18T11:15:44;-1.60;99.90
20416;DHT22;10367;52.202;5.996;2022-12-18T11:18:22;-1.50;99.90
20416;DHT22;10367;52.202;5.996;2022-12-18T11:20:55;-1.40;99.90
20416;DHT22;10367;52.202;5.996;2022-12-18T11:23:26;-1.40;99.90
20416;DHT22;10367;52.202;5.996;2022-12-18T11:25:57;-1.30;99.90
20416;DHT22;10367;52.202;5.996;2022-12-18T11:28:34;-1.20;99.90
20416;DHT22;10367;52.202;5.996;2022-12-18T11:31:19;-1.20;99.90
20416;DHT22;10367;52.202;5.996;2022-12-18T11:33:56;-1.20;99.90
20416;DHT22;10367;52.202;5.996;2022-12-18T11:36:47;-1.10;99.90
20416;DHT22;10367;52.202;5.996;2022-12-18T11:39:20;-1.00;99.90
20416;DHT22;10367;52.202;5.996;2022-12-18T11:41:56;-1.00;99.90
20416;DHT22;10367;52.202;5.996;2022-12-18T11:44:44;-1.00;99.90
20416;DHT22;10367;52.202;5.996;2022-12-18T11:47:28;-0.90;99.90
20416;DHT22;10367;52.202;5.996;2022-12-18T11:50:02;-0.90;99.90
20416;DHT22;10367;52.202;5.996;2022-12-18T11:52:35;-0.80;99.90
20416;DHT22;10367;52.202;5.996;2022-12-18T11:55:11;-0.80;99.90
20416;DHT22;10367;52.202;5.996;2022-12-18T11:57:45;-0.80;99.90
20416;DHT22;10367;52.202;5.996;2022-12-18T12:00:18;-0.80;99.90
20416;DHT22;10367;52.202;5.996;2022-12-18T12:05:51;-0.60;99.90
20416;DHT22;10367;52.202;5.996;2022-12-18T12:08:30;-0.60;99.90
20416;DHT22;10367;52.202;5.996;2022-12-18T12:11:07;-0.60;99.90
20416;DHT22;10367;52.202;5.996;2022-12-18T12:13:44;-0.50;99.90
20416;DHT22;10367;52.202;5.996;2022-12-18T12:16:18;-0.50;99.90
20416;DHT22;10367;52.202;5.996;2022-12-18T12:19:01;-0.50;99.90
20416;DHT22;10367;52.202;5.996;2022-12-18T12:21:38;-0.50;99.90
20416;DHT22;10367;52.202;5.996;2022-12-18T12:24:30;-0.40;99.90
20416;DHT22;10367;52.202;5.996;2022-12-18T12:27:07;-0.40;99.90
20416;DHT22;10367;52.202;5.996;2022-12-18T12:29:47;-0.40;99.90
20416;DHT22;10367;52.202;5.996;2022-12-18T12:32:28;-0.40;99.90
20416;DHT22;10367;52.202;5.996;2022-12-18T12:35:08;-0.40;99.90
20416;DHT22;10367;52.202;5.996;2022-12-18T12:37:47;-0.40;99.90
20416;DHT22;10367;52.202;5.996;2022-12-18T12:40:22;-0.30;99.90
20416;DHT22;10367;52.202;5.996;2022-12-18T12:43:22;-0.30;99.90
20416;DHT22;10367;52.202;5.996;2022-12-18T12:45:55;-0.30;99.90
20416;DHT22;10367;52.202;5.996;2022-12-18T12:48:33;-0.30;99.90
20416;DHT22;10367;52.202;5.996;2022-12-18T12:51:07;-0.20;99.90
20416;DHT22;10367;52.202;5.996;2022-12-18T12:53:39;-0.20;99.90
20416;DHT22;10367;52.202;5.996;2022-12-18T12:56:11;-0.20;99.90
20416;DHT22;10367;52.202;5.996;2022-12-18T12:58:49;-0.20;99.90
20416;DHT22;10367;52.202;5.996;2022-12-18T13:01:28;-0.20;99.90
20416;DHT22;10367;52.202;5.996;2022-12-18T13:04:12;-0.20;99.90
20416;DHT22;10367;52.202;5.996;2022-12-18T13:06:49;-0.20;99.90
20416;DHT22;10367;52.202;5.996;2022-12-18T13:09:22;-0.20;99.90
20416;DHT22;10367;52.202;5.996;2022-12-18T13:11:51;-0.20;99.90
20416;DHT22;10367;52.202;5.996;2022-12-18T13:14:39;-0.20;99.90
20416;DHT22;10367;52.202;5.996;2022-12-18T13:20:08;-0.20;99.90
20416;DHT22;10367;52.202;5.996;2022-12-18T13:22:40;-0.20;99.90
20416;DHT22;10367;52.202;5.996;2022-12-18T13:25:31;-0.20;99.90
20416;DHT22;10367;52.202;5.996;2022-12-18T13:28:10;-0.20;99.90
20416;DHT22;10367;52.202;5.996;2022-12-18T13:30:54;-0.20;99.90
20416;DHT22;10367;52.202;5.996;2022-12-18T13:33:41;-0.20;99.90
20416;DHT22;10367;52.202;5.996;2022-12-18T13:36:32;-0.30;99.90
20416;DHT22;10367;52.202;5.996;2022-12-18T13:39:22;-0.30;99.90
20416;DHT22;10367;52.202;5.996;2022-12-18T13:42:36;-0.30;99.90
20416;DHT22;10367;52.202;5.996;2022-12-18T13:45:41;-0.30;99.90
20416;DHT22;10367;52.202;5.996;2022-12-18T13:48:22;-0.30;99.90
20416;DHT22;10367;52.202;5.996;2022-12-18T13:50:55;-0.30;99.90
20416;DHT22;10367;52.202;5.996;2022-12-18T13:53:28;-0.40;99.90
20416;DHT22;10367;52.202;5.996;2022-12-18T13:55:58;-0.40;99.90
20416;DHT22;10367;52.202;5.996;2022-12-18T13:58:28;-0.40;99.90
20416;DHT22;10367;52.202;5.996;2022-12-18T14:00:57;-0.40;99.90
20416;DHT22;10367;52.202;5.996;2022-12-18T14:03:28;-0.40;99.90
20416;DHT22;10367;52.202;5.996;2022-12-18T14:06:04;-0.40;99.90
20416;DHT22;10367;52.202;5.996;2022-12-18T14:08:38;-0.50;99.90
20416;DHT22;10367;52.202;5.996;2022-12-18T14:11:18;-0.40;99.90
20416;DHT22;10367;52.202;5.996;2022-12-18T14:13:50;-0.40;99.90
20416;DHT22;10367;52.202;5.996;2022-12-18T14:16:20;-0.50;99.90
20416;DHT22;10367;52.202;5.996;2022-12-18T14:18:53;-0.40;99.90
20416;DHT22;10367;52.202;5.996;2022-12-18T14:21:31;-0.40;99.90
20416;DHT22;10367;52.202;5.996;2022-12-18T14:24:12;-0.50;99.90
20416;DHT22;10367;52.202;5.996;2022-12-18T14:26:44;-0.40;99.90
20416;DHT22;10367;52.202;5.996;2022-12-18T14:29:27;-0.50;99.90
20416;DHT22;10367;52.202;5.996;2022-12-18T14:32:08;-0.50;99.90
20416;DHT22;10367;52.202;5.996;2022-12-18T14:34:44;-0.50;99.90
20416;DHT22;10367;52.202;5.996;2022-12-18T14:37:14;-0.50;99.90
20416;DHT22;10367;52.202;5.996;2022-12-18T14:39:53;-0.50;99.90
20416;DHT22;10367;52.202;5.996;2022-12-18T14:42:22;-0.50;99.90
20416;DHT22;10367;52.202;5.996;2022-12-18T14:48:16;-0.50;99.90
20416;DHT22;10367;52.202;5.996;2022-12-18T14:51:00;-0.50;99.90
20416;DHT22;10367;52.202;5.996;2022-12-18T14:53:39;-0.60;99.90
20416;DHT22;10367;52.202;5.996;2022-12-18T14:56:16;-0.60;99.90
20416;DHT22;10367;52.202;5.996;2022-12-18T14:58:47;-0.50;99.90
20416;DHT22;10367;52.202;5.996;2022-12-18T15:01:21;-0.60;99.90
20416;DHT22;10367;52.202;5.996;2022-12-18T15:03:54;-0.60;99.90
20416;DHT22;10367;52.202;5.996;2022-12-18T15:06:29;-0.50;99.90
20416;DHT22;10367;52.202;5.996;2022-12-18T15:08:59;-0.50;99.90
20416;DHT22;10367;52.202;5.996;2022-12-18T15:11:35;-0.60;99.90
20416;DHT22;10367;52.202;5.996;2022-12-18T15:14:38;-0.60;99.90
20416;DHT22;10367;52.202;5.996;2022-12-18T15:17:16;-0.60;99.90
20416;DHT22;10367;52.202;5.996;2022-12-18T15:19:48;-0.60;99.90
20416;DHT22;10367;52.202;5.996;2022-12-18T15:22:25;-0.60;99.90
20416;DHT22;10367;52.202;5.996;2022-12-18T15:24:55;-0.60;99.90
20416;DHT22;10367;52.202;5.996;2022-12-18T15:27:30;-0.60;99.90
20416;DHT22;10367;52.202;5.996;2022-12-18T15:30:15;-0.60;99.90
20416;DHT22;10367;52.202;5.996;2022-12-18T15:32:45;-0.60;99.90
20416;DHT22;10367;52.202;5.996;2022-12-18T15:35:17;-0.70;99.90
20416;DHT22;10367;52.202;5.996;2022-12-18T15:37:47;-0.60;99.90
20416;DHT22;10367;52.202;5.996;2022-12-18T15:40:18;-0.70;99.90
20416;DHT22;10367;52.202;5.996;2022-12-18T15:42:47;-0.70;99.90
20416;DHT22;10367;52.202;5.996;2022-12-18T15:45:34;-0.60;99.90
20416;DHT22;10367;52.202;5.996;2022-12-18T15:48:09;-0.70;99.90
20416;DHT22;10367;52.202;5.996;2022-12-18T15:50:43;-0.70;99.90
20416;DHT22;10367;52.202;5.996;2022-12-18T15:53:12;-0.60;99.90
20416;DHT22;10367;52.202;5.996;2022-12-18T15:55:41;-0.60;99.90
20416;DHT22;10367;52.202;5.996;2022-12-18T15:58:27;-0.70;99.90
20416;DHT22;10367;52.202;5.996;2022-12-18T16:00:58;-0.70;99.90
20416;DHT22;10367;52.202;5.996;2022-12-18T16:03:28;-0.70;99.90
20416;DHT22;10367;52.202;5.996;2022-12-18T16:05:58;-0.70;99.90
20416;DHT22;10367;52.202;5.996;2022-12-18T16:08:30;-0.60;99.90
20416;DHT22;10367;52.202;5.996;2022-12-18T16:10:59;-0.60;99.90
20416;DHT22;10367;52.202;5.996;2022-12-18T16:13:28;-0.60;99.90
20416;DHT22;10367;52.202;5.996;2022-12-18T16:15:57;-0.60;99.90